createdAt,value
2023-02-14T00:01:10.208Z,27.34
2023-02-14T00:02:12.036Z,27.23
2023-02-14T00:03:14.802Z,27.32
2023-02-14T00:04:18.569Z,27.59
2023-02-14T00:05:20.426Z,27.25
2023-02-14T00:06:22.223Z,27.56
2023-02-14T00:07:24.053Z,27.36
2023-02-14T00:08:25.812Z,27.21
2023-02-14T00:09:27.560Z,27.17
2023-02-14T00:10:29.374Z,27.73
2023-02-14T00:11:31.559Z,27.26
2023-02-14T00:12:33.315Z,27.48
2023-02-14T00:13:35.241Z,27.36
2023-02-14T00:14:55.787Z,27.32
2023-02-14T00:15:57.770Z,27.06
2023-02-14T00:17:00.287Z,27.40
2023-02-14T00:18:03.535Z,27.66
2023-02-14T00:19:05.569Z,27.34
2023-02-14T00:20:07.964Z,27.08
2023-02-14T00:21:09.738Z,27.35
2023-02-14T00:22:11.576Z,27.50
2023-02-14T00:23:13.389Z,27.32
2023-02-14T00:24:18.702Z,27.46
2023-02-14T00:25:20.507Z,27.47
2023-02-14T00:26:22.291Z,27.83
2023-02-14T00:27:24.117Z,27.64
2023-02-14T00:28:25.923Z,27.43
2023-02-14T00:29:31.119Z,28.08
2023-02-14T00:30:34.501Z,27.71
2023-02-14T00:31:40.844Z,27.76
2023-02-14T00:32:43.234Z,27.20
2023-02-14T00:33:45.128Z,27.37
2023-02-14T00:34:46.908Z,27.28
2023-02-14T00:35:48.876Z,27.40
2023-02-14T00:36:51.161Z,27.43
2023-02-14T00:37:53.156Z,27.67
2023-02-14T00:38:55.080Z,27.78
2023-02-14T00:39:56.876Z,27.82
2023-02-14T00:40:59.238Z,27.41
2023-02-14T00:42:01.152Z,27.77
2023-02-14T00:43:02.907Z,27.30
2023-02-14T00:44:05.616Z,28.00
2023-02-14T00:45:07.686Z,27.48
2023-02-14T00:46:10.417Z,27.78
2023-02-14T00:47:12.295Z,27.33
2023-02-14T00:48:14.033Z,27.30
2023-02-14T00:49:15.857Z,27.27
2023-02-14T00:50:17.755Z,27.50
2023-02-14T00:51:20.970Z,27.45
2023-02-14T00:52:22.730Z,27.75
2023-02-14T00:53:24.547Z,27.20
2023-02-14T00:54:26.472Z,27.36
2023-02-14T00:55:28.280Z,27.08
2023-02-14T00:56:30.237Z,27.54
2023-02-14T00:57:31.980Z,27.29
2023-02-14T00:58:34.093Z,27.44
2023-02-14T00:59:35.808Z,27.46
2023-02-14T01:00:39.092Z,27.35
2023-02-14T01:01:40.934Z,27.46
2023-02-14T01:02:44.151Z,27.67
2023-02-14T01:03:46.397Z,27.54
2023-02-14T01:04:48.159Z,27.45
2023-02-14T01:05:50.717Z,27.78
2023-02-14T01:06:52.468Z,27.99
2023-02-14T01:07:54.939Z,27.78
2023-02-14T01:08:57.401Z,27.67
2023-02-14T01:09:59.169Z,27.59
2023-02-14T01:11:18.745Z,27.78
2023-02-14T01:12:21.008Z,27.56
2023-02-14T01:13:23.519Z,27.40
2023-02-14T01:14:25.391Z,27.43
2023-02-14T01:15:27.201Z,27.80
2023-02-14T01:16:30.286Z,27.51
2023-02-14T01:17:32.160Z,27.75
2023-02-14T01:18:34.641Z,27.78
2023-02-14T01:19:36.756Z,27.76
2023-02-14T01:20:38.824Z,27.47
2023-02-14T01:21:41.726Z,27.34
2023-02-14T01:22:43.538Z,27.17
2023-02-14T01:23:47.332Z,27.47
2023-02-14T01:24:49.188Z,27.78
2023-02-14T01:25:50.953Z,27.82
2023-02-14T01:26:52.757Z,27.77
2023-02-14T01:27:54.669Z,27.74
2023-02-14T01:28:56.921Z,27.28
2023-02-14T01:29:58.797Z,27.59
2023-02-14T01:31:11.528Z,27.55
2023-02-14T01:32:13.477Z,27.70
2023-02-14T01:33:15.356Z,27.67
2023-02-14T01:34:17.200Z,27.26
2023-02-14T01:35:21.787Z,27.70
2023-02-14T01:36:32.264Z,27.42
2023-02-14T01:37:34.095Z,27.30
2023-02-14T01:38:35.866Z,27.25
2023-02-14T01:39:37.635Z,27.77
2023-02-14T01:40:45.493Z,27.72
2023-02-14T01:41:48.699Z,27.58
2023-02-14T01:42:51.338Z,27.42
2023-02-14T01:44:06.289Z,27.42
2023-02-14T01:45:18.037Z,27.37
2023-02-14T01:46:21.754Z,27.25
2023-02-14T01:47:26.609Z,27.55
2023-02-14T01:48:28.523Z,27.71
2023-02-14T01:49:35.737Z,27.54
2023-02-14T01:50:43.834Z,27.84
2023-02-14T01:52:10.206Z,27.44
2023-02-14T01:53:28.944Z,27.49
2023-02-14T01:54:35.571Z,27.37
2023-02-14T01:55:41.824Z,27.33
2023-02-14T01:56:51.717Z,27.45
2023-02-14T01:57:55.753Z,27.43
2023-02-14T01:59:01.410Z,27.32
2023-02-14T02:00:28.362Z,27.62
2023-02-14T02:01:31.460Z,27.26
2023-02-14T02:02:35.715Z,27.25
2023-02-14T02:03:43.360Z,27.48
2023-02-14T02:04:47.117Z,27.73
2023-02-14T02:05:52.090Z,27.37
2023-02-14T02:07:01.872Z,27.54
2023-02-14T02:08:04.127Z,27.38
2023-02-14T02:09:16.586Z,27.75
2023-02-14T02:10:18.824Z,27.71
2023-02-14T02:11:20.722Z,27.55
2023-02-14T02:12:22.564Z,27.75
2023-02-14T02:13:24.364Z,27.74
2023-02-14T02:14:26.664Z,27.79
2023-02-14T02:15:31.210Z,27.76
2023-02-14T02:17:08.273Z,27.70
2023-02-14T02:18:22.162Z,27.39
2023-02-14T02:19:50.367Z,27.44
2023-02-14T02:21:27.292Z,27.62
2023-02-14T02:23:13.264Z,27.57
2023-02-14T02:24:16.320Z,26.87
2023-02-14T02:25:42.993Z,27.20
2023-02-14T02:27:11.685Z,27.27
2023-02-14T02:28:46.108Z,27.49
2023-02-14T02:30:22.164Z,27.01
2023-02-14T02:31:42.539Z,27.08
2023-02-14T02:33:12.964Z,27.04
2023-02-14T02:34:39.201Z,27.19
2023-02-14T02:35:59.004Z,27.08
2023-02-14T02:37:06.960Z,27.33
2023-02-14T02:38:26.306Z,27.31
2023-02-14T02:39:45.505Z,27.71
2023-02-14T02:40:58.515Z,27.24
2023-02-14T02:42:06.156Z,27.71
2023-02-14T02:43:33.429Z,27.71
2023-02-14T02:44:57.672Z,27.60
2023-02-14T02:46:24.223Z,27.45
2023-02-14T02:47:42.644Z,27.42
2023-02-14T02:49:02.403Z,26.95
2023-02-14T02:50:36.308Z,27.24
2023-02-14T02:52:06.611Z,27.24
2023-02-14T02:53:22.160Z,27.68
2023-02-14T02:54:37.443Z,27.28
2023-02-14T02:56:16.932Z,27.65
2023-02-14T02:57:25.780Z,27.58
2023-02-14T02:58:34.454Z,27.33
2023-02-14T02:59:41.831Z,27.52
2023-02-14T03:00:44.561Z,27.42
2023-02-14T03:01:58.776Z,27.51
2023-02-14T03:03:19.080Z,27.36
2023-02-14T03:04:40.410Z,27.28
2023-02-14T03:05:43.117Z,27.09
2023-02-14T03:06:46.238Z,27.69
2023-02-14T03:07:48.836Z,27.63
2023-02-14T03:08:50.677Z,27.30
2023-02-14T03:09:57.647Z,27.39
2023-02-14T03:11:03.118Z,27.48
2023-02-14T03:12:04.996Z,27.81
2023-02-14T03:13:39.937Z,27.24
2023-02-14T03:14:59.186Z,27.34
2023-02-14T03:16:06.701Z,27.64
2023-02-14T03:17:12.541Z,27.25
2023-02-14T03:19:13.316Z,27.13
2023-02-14T03:20:31.741Z,27.37
2023-02-14T03:21:39.562Z,27.45
2023-02-14T03:23:03.206Z,27.54
2023-02-14T03:24:17.036Z,27.46
2023-02-14T03:25:42.991Z,27.12
2023-02-14T03:26:56.214Z,27.13
2023-02-14T03:28:06.319Z,27.38
2023-02-14T03:29:14.317Z,27.28
2023-02-14T03:30:53.346Z,27.30
2023-02-14T03:32:18.578Z,27.16
2023-02-14T03:33:29.928Z,27.53
2023-02-14T03:34:38.162Z,27.35
2023-02-14T03:36:02.104Z,27.47
2023-02-14T03:37:31.692Z,27.54
2023-02-14T03:38:51.521Z,27.01
2023-02-14T03:40:01.811Z,27.15
2023-02-14T03:41:09.274Z,27.35
2023-02-14T03:42:26.028Z,27.21
2023-02-14T03:43:33.805Z,27.36
2023-02-14T03:44:38.158Z,27.32
2023-02-14T03:45:47.846Z,27.69
2023-02-14T03:46:54.080Z,27.75
2023-02-14T03:48:00.568Z,27.36
2023-02-14T03:49:07.335Z,27.58
2023-02-14T03:50:17.226Z,27.53
2023-02-14T03:51:21.306Z,27.56
2023-02-14T03:52:25.357Z,27.74
2023-02-14T03:53:31.902Z,27.50
2023-02-14T03:54:35.842Z,27.46
2023-02-14T03:56:00.476Z,27.50
2023-02-14T03:57:16.709Z,27.47
2023-02-14T03:58:27.622Z,27.62
2023-02-14T03:59:29.904Z,27.13
2023-02-14T04:00:36.107Z,27.30
2023-02-14T04:01:42.808Z,27.19
2023-02-14T04:02:48.740Z,27.26
2023-02-14T04:03:52.849Z,27.67
2023-02-14T04:04:58.316Z,26.98
2023-02-14T04:06:00.606Z,27.19
2023-02-14T04:07:17.371Z,27.53
2023-02-14T04:08:24.088Z,27.55
2023-02-14T04:09:25.899Z,27.28
2023-02-14T04:10:28.061Z,27.65
2023-02-14T04:11:33.546Z,27.55
2023-02-14T04:12:37.908Z,27.18
2023-02-14T04:13:40.254Z,27.34
2023-02-14T04:14:42.265Z,27.52
2023-02-14T04:15:44.979Z,27.51
2023-02-14T04:17:05.192Z,27.13
2023-02-14T04:18:25.395Z,27.19
2023-02-14T04:19:27.438Z,27.08
2023-02-14T04:20:29.885Z,27.03
2023-02-14T04:21:31.716Z,27.58
2023-02-14T04:22:33.502Z,27.66
2023-02-14T04:23:35.340Z,27.30
2023-02-14T04:24:37.201Z,27.59
2023-02-14T04:25:40.484Z,27.18
2023-02-14T04:26:54.063Z,27.65
2023-02-14T04:27:56.079Z,27.21
2023-02-14T04:28:57.847Z,27.54
2023-02-14T04:29:59.703Z,27.29
2023-02-14T04:31:03.865Z,27.16
2023-02-14T04:32:12.758Z,27.35
2023-02-14T04:33:14.642Z,27.06
2023-02-14T04:34:16.491Z,27.55
2023-02-14T04:35:18.404Z,27.70
2023-02-14T04:36:20.219Z,27.29
2023-02-14T04:37:22.102Z,27.61
2023-02-14T04:38:23.902Z,27.61
2023-02-14T04:39:25.852Z,27.50
2023-02-14T04:40:28.090Z,27.32
2023-02-14T04:41:29.872Z,27.55
2023-02-14T04:42:31.625Z,27.55
2023-02-14T04:43:33.463Z,27.42
2023-02-14T04:44:35.561Z,27.43
2023-02-14T04:45:37.327Z,27.57
2023-02-14T04:46:39.253Z,27.19
2023-02-14T04:47:41.401Z,27.25
2023-02-14T04:48:43.197Z,27.37
2023-02-14T04:49:45.163Z,27.09
2023-02-14T04:50:52.546Z,27.70
2023-02-14T04:51:54.433Z,27.50
2023-02-14T04:52:56.337Z,27.35
2023-02-14T04:53:58.126Z,27.55
2023-02-14T04:54:59.914Z,27.32
2023-02-14T04:56:01.682Z,27.45
2023-02-14T04:57:03.496Z,27.30
2023-02-14T04:58:05.408Z,27.28
2023-02-14T04:59:07.256Z,27.16
2023-02-14T05:00:09.972Z,27.58
2023-02-14T05:01:11.860Z,27.40
2023-02-14T05:02:13.797Z,27.50
2023-02-14T05:03:15.665Z,27.08
2023-02-14T05:04:17.417Z,27.72
2023-02-14T05:05:19.376Z,27.40
2023-02-14T05:06:21.303Z,27.51
2023-02-14T05:07:23.081Z,27.48
2023-02-14T05:08:24.869Z,27.43
2023-02-14T05:09:26.735Z,27.09
2023-02-14T05:10:29.315Z,27.38
2023-02-14T05:11:31.424Z,27.49
2023-02-14T05:12:33.324Z,27.48
2023-02-14T05:13:35.104Z,27.15
2023-02-14T05:14:37.017Z,27.15
2023-02-14T05:15:38.848Z,27.48
2023-02-14T05:16:40.738Z,27.49
2023-02-14T05:17:42.576Z,27.29
2023-02-14T05:18:44.659Z,27.51
2023-02-14T05:19:46.477Z,27.40
2023-02-14T05:20:52.636Z,27.30
2023-02-14T05:21:54.513Z,27.55
2023-02-14T05:22:56.709Z,27.46
2023-02-14T05:24:01.586Z,27.30
2023-02-14T05:25:03.552Z,27.08
2023-02-14T05:26:05.658Z,27.20
2023-02-14T05:27:07.716Z,27.69
2023-02-14T05:28:10.465Z,27.19
2023-02-14T05:29:12.353Z,27.40
2023-02-14T05:30:14.785Z,27.31
2023-02-14T05:31:16.758Z,27.17
2023-02-14T05:32:18.639Z,27.49
2023-02-14T05:33:20.427Z,27.62
2023-02-14T05:34:22.278Z,27.38
2023-02-14T05:35:24.394Z,27.11
2023-02-14T05:36:26.386Z,27.09
2023-02-14T05:37:28.466Z,27.58
2023-02-14T05:38:30.930Z,27.57
2023-02-14T05:39:32.723Z,27.65
2023-02-14T05:40:34.645Z,27.39
2023-02-14T05:41:36.530Z,27.50
2023-02-14T05:42:38.357Z,26.95
2023-02-14T05:43:40.162Z,27.58
2023-02-14T05:44:42.078Z,27.38
2023-02-14T05:45:43.998Z,27.22
2023-02-14T05:46:45.773Z,27.39
2023-02-14T05:47:48.658Z,27.33
2023-02-14T05:48:50.544Z,27.33
2023-02-14T05:49:52.327Z,27.31
2023-02-14T05:50:54.147Z,27.83
2023-02-14T05:51:55.945Z,27.42
2023-02-14T05:52:57.780Z,27.50
2023-02-14T05:54:01.389Z,27.33
2023-02-14T05:55:03.669Z,27.66
2023-02-14T05:56:05.857Z,27.35
2023-02-14T05:57:07.681Z,27.67
2023-02-14T05:58:09.997Z,27.25
2023-02-14T05:59:12.131Z,27.30
2023-02-14T06:00:14.664Z,27.47
2023-02-14T06:01:16.505Z,27.54
2023-02-14T06:02:18.376Z,27.42
2023-02-14T06:03:20.184Z,27.58
2023-02-14T06:04:22.096Z,27.55
2023-02-14T06:05:23.985Z,27.49
2023-02-14T06:06:25.838Z,27.46
2023-02-14T06:07:27.615Z,27.27
2023-02-14T06:08:29.468Z,27.61
2023-02-14T06:09:31.237Z,27.22
2023-02-14T06:10:33.168Z,27.72
2023-02-14T06:11:34.980Z,27.55
2023-02-14T06:12:36.808Z,27.53
2023-02-14T06:13:40.428Z,27.26
2023-02-14T06:14:43.004Z,27.51
2023-02-14T06:15:44.786Z,27.66
2023-02-14T06:16:46.651Z,27.23
2023-02-14T06:17:56.303Z,27.02
2023-02-14T06:18:58.122Z,27.29
2023-02-14T06:19:59.897Z,27.09
2023-02-14T06:21:02.242Z,27.07
2023-02-14T06:22:04.450Z,27.18
2023-02-14T06:23:06.225Z,27.19
2023-02-14T06:24:08.058Z,27.46
2023-02-14T06:25:09.820Z,27.24
2023-02-14T06:26:11.757Z,27.48
2023-02-14T06:27:13.601Z,26.64
2023-02-14T06:28:15.462Z,27.11
2023-02-14T06:29:18.014Z,27.18
2023-02-14T06:30:19.992Z,26.82
2023-02-14T06:31:22.296Z,26.75
2023-02-14T06:32:24.255Z,26.79
2023-02-14T06:33:26.168Z,26.96
2023-02-14T06:34:27.927Z,26.63
2023-02-14T06:35:29.808Z,26.58
2023-02-14T06:36:31.920Z,26.72
2023-02-14T06:37:33.992Z,26.81
2023-02-14T06:38:35.804Z,26.29
2023-02-14T06:39:37.608Z,26.46
2023-02-14T06:40:39.354Z,26.63
2023-02-14T06:41:41.130Z,26.60
2023-02-14T06:42:43.302Z,26.60
2023-02-14T06:43:48.839Z,26.30
2023-02-14T06:44:50.642Z,26.48
2023-02-14T06:45:52.498Z,26.30
2023-02-14T06:46:54.265Z,26.17
2023-02-14T06:47:56.097Z,26.08
2023-02-14T06:48:57.874Z,26.32
2023-02-14T06:50:04.334Z,26.22
2023-02-14T06:51:06.873Z,26.19
2023-02-14T06:52:08.752Z,26.09
2023-02-14T06:53:11.612Z,25.99
2023-02-14T06:54:13.805Z,26.24
2023-02-14T06:55:15.710Z,26.19
2023-02-14T06:56:17.643Z,25.67
2023-02-14T06:57:20.060Z,25.54
2023-02-14T06:58:21.967Z,25.86
2023-02-14T06:59:23.938Z,25.35
2023-02-14T07:00:25.857Z,25.88
2023-02-14T07:01:27.763Z,25.50
2023-02-14T07:02:29.650Z,25.70
2023-02-14T07:03:31.473Z,25.44
2023-02-14T07:04:33.353Z,25.63
2023-02-14T07:05:35.733Z,25.91
2023-02-14T07:06:37.877Z,25.11
2023-02-14T07:07:39.726Z,25.22
2023-02-14T07:08:42.485Z,25.72
2023-02-14T07:09:44.284Z,25.39
2023-02-14T07:10:46.440Z,25.24
2023-02-14T07:11:48.254Z,25.69
2023-02-14T07:12:50.037Z,25.55
2023-02-14T07:13:51.865Z,25.82
2023-02-14T07:14:53.648Z,25.58
2023-02-14T07:15:55.521Z,25.24
2023-02-14T07:16:57.377Z,25.70
2023-02-14T07:17:59.277Z,25.28
2023-02-14T07:19:01.139Z,25.15
2023-02-14T07:20:03.452Z,25.17
2023-02-14T07:21:05.501Z,25.30
2023-02-14T07:22:07.271Z,25.42
2023-02-14T07:23:09.038Z,25.25
2023-02-14T07:24:10.992Z,25.14
2023-02-14T07:25:12.940Z,25.29
2023-02-14T07:26:18.269Z,24.92
2023-02-14T07:27:20.211Z,25.55
2023-02-14T07:28:22.474Z,25.84
2023-02-14T07:29:24.308Z,25.16
2023-02-14T07:30:26.309Z,25.51
2023-02-14T07:31:28.297Z,25.26
2023-02-14T07:32:30.390Z,25.52
2023-02-14T07:33:32.183Z,25.26
2023-02-14T07:34:34.193Z,25.65
2023-02-14T07:35:36.007Z,25.05
2023-02-14T07:36:39.031Z,25.53
2023-02-14T07:37:40.905Z,25.73
2023-02-14T07:38:42.668Z,25.00
2023-02-14T07:39:46.089Z,25.43
2023-02-14T07:40:47.861Z,25.50
2023-02-14T07:41:49.709Z,25.37
2023-02-14T07:42:55.513Z,25.48
2023-02-14T07:43:57.345Z,25.22
2023-02-14T07:45:00.502Z,25.55
2023-02-14T07:46:05.050Z,25.48
2023-02-14T07:47:07.984Z,25.06
2023-02-14T07:48:09.816Z,25.43
2023-02-14T07:49:12.099Z,25.42
2023-02-14T07:50:13.884Z,25.01
2023-02-14T07:51:15.668Z,25.18
2023-02-14T07:52:17.654Z,25.08
2023-02-14T07:53:19.394Z,25.32
2023-02-14T07:54:21.314Z,25.79
2023-02-14T07:55:26.337Z,25.27
2023-02-14T07:56:28.147Z,24.88
2023-02-14T07:57:29.996Z,25.46
2023-02-14T07:58:31.762Z,25.60
2023-02-14T07:59:33.765Z,25.33
2023-02-14T08:00:35.571Z,25.58
2023-02-14T08:01:37.491Z,25.39
2023-02-14T08:02:39.476Z,25.05
2023-02-14T08:03:41.448Z,25.66
2023-02-14T08:04:43.363Z,25.27
2023-02-14T08:05:57.123Z,25.25
2023-02-14T08:06:59.104Z,25.36
2023-02-14T08:08:00.899Z,25.16
2023-02-14T08:09:03.036Z,25.32
2023-02-14T08:10:05.754Z,25.23
2023-02-14T08:11:08.167Z,25.08
2023-02-14T08:12:28.896Z,25.80
2023-02-14T08:13:30.720Z,25.48
2023-02-14T08:14:32.486Z,25.06
2023-02-14T08:15:53.900Z,25.22
2023-02-14T08:16:55.727Z,25.26
2023-02-14T08:17:57.669Z,25.05
2023-02-14T08:18:59.811Z,25.42
2023-02-14T08:20:01.587Z,25.43
2023-02-14T08:21:04.438Z,25.14
2023-02-14T08:22:06.841Z,25.04
2023-02-14T08:23:08.692Z,25.06
2023-02-14T08:24:10.502Z,25.16
2023-02-14T08:25:12.270Z,25.45
2023-02-14T08:26:14.453Z,25.39
2023-02-14T08:27:16.209Z,25.04
2023-02-14T08:28:22.432Z,25.69
2023-02-14T08:29:24.334Z,25.37
2023-02-14T08:30:26.300Z,25.27
2023-02-14T08:31:36.267Z,25.24
2023-02-14T08:32:38.457Z,24.82
2023-02-14T08:33:40.603Z,25.09
2023-02-14T08:34:42.443Z,25.22
2023-02-14T08:35:44.324Z,25.16
2023-02-14T08:36:47.571Z,24.99
2023-02-14T08:37:49.535Z,25.22
2023-02-14T08:38:51.343Z,25.80
2023-02-14T08:39:53.174Z,25.42
2023-02-14T08:40:59.440Z,25.22
2023-02-14T08:42:01.403Z,24.93
2023-02-14T08:43:07.353Z,25.42
2023-02-14T08:44:09.140Z,24.91
2023-02-14T08:45:10.920Z,25.54
2023-02-14T08:46:13.028Z,25.24
2023-02-14T08:47:14.925Z,25.65
2023-02-14T08:48:16.769Z,25.51
2023-02-14T08:49:18.542Z,25.23
2023-02-14T08:50:20.633Z,25.31
2023-02-14T08:51:22.886Z,25.19
2023-02-14T08:52:24.661Z,25.33
2023-02-14T08:53:26.573Z,24.95
2023-02-14T08:54:28.397Z,25.54
2023-02-14T08:55:30.243Z,24.96
2023-02-14T08:56:32.181Z,25.75
2023-02-14T08:57:33.993Z,25.33
2023-02-14T08:58:36.636Z,25.17
2023-02-14T08:59:38.481Z,25.38
2023-02-14T09:00:40.753Z,25.00
2023-02-14T09:01:42.636Z,25.39
2023-02-14T09:02:44.567Z,25.59
2023-02-14T09:03:46.604Z,25.30
2023-02-14T09:04:48.462Z,25.52
2023-02-14T09:05:50.718Z,25.32
2023-02-14T09:06:52.641Z,25.54
2023-02-14T09:07:56.504Z,25.40
2023-02-14T09:08:59.435Z,25.27
2023-02-14T09:10:02.677Z,25.31
2023-02-14T09:11:25.012Z,25.81
2023-02-14T09:12:27.092Z,24.98
2023-02-14T09:13:30.618Z,25.40
2023-02-14T09:14:40.761Z,25.39
2023-02-14T09:15:43.665Z,24.82
2023-02-14T09:16:45.484Z,25.02
2023-02-14T09:17:47.847Z,25.55
2023-02-14T09:18:49.733Z,25.47
2023-02-14T09:19:51.506Z,25.50
2023-02-14T09:20:53.379Z,25.51
2023-02-14T09:21:55.186Z,25.14
2023-02-14T09:22:57.315Z,25.40
2023-02-14T09:23:59.303Z,25.47
2023-02-14T09:25:01.395Z,25.30
2023-02-14T09:26:09.065Z,25.15
2023-02-14T09:27:11.174Z,25.21
2023-02-14T09:28:13.015Z,25.40
2023-02-14T09:29:15.952Z,25.33
2023-02-14T09:30:17.967Z,24.95
2023-02-14T09:31:22.469Z,25.23
2023-02-14T09:32:26.493Z,25.42
2023-02-14T09:33:31.815Z,25.08
2023-02-14T09:34:34.952Z,25.31
2023-02-14T09:35:36.713Z,25.13
2023-02-14T09:36:38.499Z,25.61
2023-02-14T09:37:40.264Z,25.66
2023-02-14T09:38:42.264Z,25.17
2023-02-14T09:39:44.064Z,24.74
2023-02-14T09:40:48.383Z,25.30
2023-02-14T09:42:05.336Z,24.94
2023-02-14T09:43:36.512Z,25.12
2023-02-14T09:44:46.954Z,25.32
2023-02-14T09:45:55.169Z,24.64
2023-02-14T09:47:01.601Z,25.08
2023-02-14T09:48:06.489Z,25.31
2023-02-14T09:49:18.292Z,25.11
2023-02-14T09:50:25.890Z,25.06
2023-02-14T09:51:31.783Z,25.37
2023-02-14T09:52:34.304Z,25.01
2023-02-14T09:53:43.837Z,24.82
2023-02-14T09:54:53.870Z,25.42
2023-02-14T09:56:20.369Z,25.29
2023-02-14T09:57:53.169Z,25.05
2023-02-14T09:59:18.020Z,24.54
2023-02-14T10:00:29.346Z,25.06
2023-02-14T10:01:41.932Z,25.25
2023-02-14T10:02:58.929Z,24.83
2023-02-14T10:04:39.881Z,24.74
2023-02-14T10:06:02.280Z,24.68
2023-02-14T10:07:41.165Z,24.58
2023-02-14T10:09:10.145Z,25.05
2023-02-14T10:10:42.093Z,24.91
2023-02-14T10:11:47.630Z,24.54
2023-02-14T10:13:20.230Z,24.41
2023-02-14T10:14:26.070Z,24.55
2023-02-14T10:15:34.365Z,25.15
2023-02-14T10:16:42.889Z,24.67
2023-02-14T10:17:48.632Z,25.35
2023-02-14T10:18:59.105Z,24.71
2023-02-14T10:20:07.352Z,24.86
2023-02-14T10:21:22.364Z,24.92
2023-02-14T10:22:32.625Z,24.61
2023-02-14T10:23:42.749Z,24.83
2023-02-14T10:25:03.776Z,24.88
2023-02-14T10:26:10.682Z,24.55
2023-02-14T10:27:33.890Z,24.95
2023-02-14T10:28:43.893Z,24.90
2023-02-14T10:29:45.758Z,24.50
2023-02-14T10:31:05.104Z,24.74
2023-02-14T10:32:14.303Z,24.42
2023-02-14T10:33:18.042Z,24.43
2023-02-14T10:34:46.003Z,24.71
2023-02-14T10:36:00.799Z,24.82
2023-02-14T10:37:19.979Z,24.07
2023-02-14T10:38:42.428Z,24.56
2023-02-14T10:40:23.433Z,24.51
2023-02-14T10:42:10.369Z,24.73
2023-02-14T10:43:36.588Z,24.31
2023-02-14T10:44:59.709Z,24.67
2023-02-14T10:46:27.607Z,24.48
2023-02-14T10:47:51.994Z,24.62
2023-02-14T10:49:22.073Z,24.13
2023-02-14T10:50:39.895Z,24.53
2023-02-14T10:51:50.263Z,24.39
2023-02-14T10:52:59.056Z,24.16
2023-02-14T10:54:24.405Z,24.34
2023-02-14T10:55:38.141Z,23.97
2023-02-14T10:56:49.462Z,24.10
2023-02-14T10:57:54.965Z,24.26
2023-02-14T10:58:57.856Z,24.32
2023-02-14T11:00:08.563Z,24.31
2023-02-14T11:01:14.131Z,24.35
2023-02-14T11:02:18.510Z,23.89
2023-02-14T11:03:20.413Z,24.24
2023-02-14T11:04:24.820Z,24.20
2023-02-14T11:05:46.658Z,24.02
2023-02-14T11:06:50.263Z,23.79
2023-02-14T11:07:52.089Z,24.09
2023-02-14T11:08:55.584Z,24.28
2023-02-14T11:09:58.832Z,23.99
2023-02-14T11:11:21.470Z,24.25
2023-02-14T11:12:38.046Z,23.72
2023-02-14T11:13:40.436Z,24.16
2023-02-14T11:14:43.682Z,23.90
2023-02-14T11:15:46.917Z,24.12
2023-02-14T11:16:51.992Z,23.79
2023-02-14T11:18:13.915Z,23.61
2023-02-14T11:19:15.650Z,24.10
2023-02-14T11:20:30.354Z,24.29
2023-02-14T11:21:39.201Z,23.85
2023-02-14T11:22:40.985Z,24.01
2023-02-14T11:23:48.402Z,23.85
2023-02-14T11:25:04.767Z,23.52
2023-02-14T11:26:30.024Z,23.69
2023-02-14T11:27:32.658Z,23.75
2023-02-14T11:28:34.848Z,23.82
2023-02-14T11:29:52.235Z,23.58
2023-02-14T11:30:54.778Z,23.40
2023-02-14T11:32:05.915Z,23.47
2023-02-14T11:33:13.056Z,23.67
2023-02-14T11:34:23.797Z,23.33
2023-02-14T11:35:33.887Z,23.88
2023-02-14T11:36:42.174Z,24.01
2023-02-14T11:37:50.237Z,23.80
2023-02-14T11:39:03.825Z,23.65
2023-02-14T11:40:06.823Z,23.81
2023-02-14T11:41:15.042Z,23.72
2023-02-14T11:42:43.173Z,23.84
2023-02-14T11:43:45.726Z,23.80
2023-02-14T11:44:56.260Z,23.43
2023-02-14T11:46:26.543Z,23.93
2023-02-14T11:47:31.237Z,23.45
2023-02-14T11:48:38.811Z,23.29
2023-02-14T11:49:41.032Z,23.71
2023-02-14T11:50:44.896Z,23.53
2023-02-14T11:51:48.021Z,23.65
2023-02-14T11:52:53.442Z,23.27
2023-02-14T11:54:00.655Z,23.60
2023-02-14T11:55:02.553Z,23.84
2023-02-14T11:56:04.757Z,23.79
2023-02-14T11:57:21.724Z,23.22
2023-02-14T11:58:37.297Z,23.61
2023-02-14T11:59:45.683Z,23.81
2023-02-14T12:00:54.437Z,23.30
2023-02-14T12:02:00.755Z,23.29
2023-02-14T12:03:05.726Z,23.49
2023-02-14T12:04:16.660Z,23.03
2023-02-14T12:05:28.165Z,23.58
2023-02-14T12:06:33.737Z,23.25
2023-02-14T12:07:39.661Z,23.02
2023-02-14T12:08:42.318Z,23.35
2023-02-14T12:09:45.669Z,23.60
2023-02-14T12:11:05.232Z,23.17
2023-02-14T12:12:17.913Z,23.61
2023-02-14T12:13:19.701Z,23.11
2023-02-14T12:14:23.485Z,23.34
2023-02-14T12:15:29.401Z,23.47
2023-02-14T12:16:47.494Z,23.36
2023-02-14T12:18:11.717Z,23.66
2023-02-14T12:19:18.393Z,23.33
2023-02-14T12:20:35.673Z,23.24
2023-02-14T12:22:02.460Z,23.35
2023-02-14T12:23:28.691Z,22.82
2023-02-14T12:24:36.502Z,23.04
2023-02-14T12:26:00.134Z,22.95
2023-02-14T12:27:23.340Z,23.52
2023-02-14T12:28:34.782Z,23.35
2023-02-14T12:30:20.673Z,23.12
2023-02-14T12:31:22.579Z,23.42
2023-02-14T12:32:27.911Z,23.63
2023-02-14T12:33:30.131Z,23.15
2023-02-14T12:34:32.011Z,22.74
2023-02-14T12:35:42.964Z,22.83
2023-02-14T12:37:22.424Z,23.63
2023-02-14T12:39:01.568Z,23.40
2023-02-14T12:40:10.608Z,23.51
2023-02-14T12:41:33.493Z,22.92
2023-02-14T12:42:53.679Z,23.08
2023-02-14T12:43:57.557Z,23.34
2023-02-14T12:45:12.467Z,23.45
2023-02-14T12:46:44.042Z,22.76
2023-02-14T12:48:13.329Z,23.33
2023-02-14T12:49:37.370Z,22.83
2023-02-14T12:50:44.205Z,22.84
2023-02-14T12:52:12.334Z,23.49
2023-02-14T12:53:42.447Z,23.13
2023-02-14T12:54:54.368Z,23.22
2023-02-14T12:56:03.673Z,23.12
2023-02-14T12:57:16.710Z,23.53
2023-02-14T12:58:35.105Z,23.18
2023-02-14T12:59:59.512Z,23.25
2023-02-14T13:01:42.744Z,22.86
2023-02-14T13:03:01.792Z,23.35
2023-02-14T13:04:30.822Z,22.81
2023-02-14T13:05:44.671Z,22.56
2023-02-14T13:07:12.025Z,22.77
2023-02-14T13:08:40.649Z,23.07
2023-02-14T13:10:14.086Z,23.07
2023-02-14T13:11:32.487Z,23.10
2023-02-14T13:12:54.470Z,22.89
2023-02-14T13:14:04.620Z,22.73
2023-02-14T13:15:30.733Z,23.29
2023-02-14T13:16:54.783Z,22.88
2023-02-14T13:18:34.873Z,22.65
2023-02-14T13:20:18.170Z,23.02
2023-02-14T13:21:27.368Z,22.84
2023-02-14T13:22:30.988Z,22.82
2023-02-14T13:23:46.958Z,22.70
2023-02-14T13:24:52.070Z,23.34
2023-02-14T13:26:03.806Z,22.99
2023-02-14T13:27:08.688Z,23.40
2023-02-14T13:28:14.413Z,23.20
2023-02-14T13:29:23.669Z,23.02
2023-02-14T13:30:28.142Z,23.27
2023-02-14T13:31:31.821Z,23.36
2023-02-14T13:32:40.571Z,22.73
2023-02-14T13:33:50.240Z,22.87
2023-02-14T13:34:52.285Z,22.80
2023-02-14T13:36:02.542Z,23.18
2023-02-14T13:37:10.765Z,23.39
2023-02-14T13:38:16.798Z,22.83
2023-02-14T13:39:54.779Z,23.00
2023-02-14T13:40:59.177Z,22.58
2023-02-14T13:42:01.254Z,23.36
2023-02-14T13:43:03.376Z,23.07
2023-02-14T13:44:05.534Z,22.99
2023-02-14T13:45:30.602Z,23.28
2023-02-14T13:46:32.456Z,23.17
2023-02-14T13:47:34.490Z,22.47
2023-02-14T13:48:38.895Z,23.13
2023-02-14T13:49:48.547Z,22.68
2023-02-14T13:51:05.398Z,22.64
2023-02-14T13:52:07.388Z,22.48
2023-02-14T13:53:13.282Z,23.04
2023-02-14T13:54:32.752Z,22.79
2023-02-14T13:55:37.332Z,22.79
2023-02-14T13:56:39.164Z,22.88
2023-02-14T13:57:41.751Z,22.94
2023-02-14T13:58:53.019Z,23.02
2023-02-14T14:00:16.555Z,22.92
2023-02-14T14:01:40.663Z,22.88
2023-02-14T14:02:50.131Z,22.38
2023-02-14T14:03:55.801Z,23.36
2023-02-14T14:04:57.753Z,22.61
2023-02-14T14:06:01.403Z,22.80
2023-02-14T14:07:03.373Z,23.12
2023-02-14T14:08:35.279Z,22.68
2023-02-14T14:09:43.013Z,23.07
2023-02-14T14:10:46.999Z,22.89
2023-02-14T14:11:50.328Z,22.90
2023-02-14T14:12:53.142Z,23.30
2023-02-14T14:13:56.369Z,22.60
2023-02-14T14:15:07.383Z,22.82
2023-02-14T14:16:26.668Z,22.90
2023-02-14T14:17:28.647Z,23.09
2023-02-14T14:18:37.401Z,23.29
2023-02-14T14:19:40.896Z,22.76
2023-02-14T14:20:48.098Z,22.79
2023-02-14T14:22:14.874Z,23.09
2023-02-14T14:23:37.530Z,22.55
2023-02-14T14:24:41.277Z,23.00
2023-02-14T14:25:43.197Z,22.62
2023-02-14T14:26:53.339Z,22.71
2023-02-14T14:27:55.213Z,22.94
2023-02-14T14:28:57.179Z,23.27
2023-02-14T14:30:02.374Z,23.05
2023-02-14T14:31:04.398Z,22.67
2023-02-14T14:32:11.511Z,23.09